sensor_id;sensor_type;location;lat;lon;timestamp;pressure;altitude;pressure_sealevel;temperature;humidity
52745;BME280;38637;49.984;20.426;2022-08-19T00:02:20;98835.16;;;22.84;75.42
52745;BME280;38637;49.984;20.426;2022-08-19T00:04:45;98846.31;;;22.84;75.39
52745;BME280;38637;49.984;20.426;2022-08-19T00:07:13;98842.34;;;22.85;75.22
52745;BME280;38637;49.984;20.426;2022-08-19T00:09:38;98845.13;;;22.85;75.24
52745;BME280;38637;49.984;20.426;2022-08-19T00:12:03;98835.59;;;22.86;75.29
52745;BME280;38637;49.984;20.426;2022-08-19T00:14:29;98832.81;;;22.86;75.23
52745;BME280;38637;49.984;20.426;2022-08-19T00:16:57;98834.44;;;22.87;75.27
52745;BME280;38637;49.984;20.426;2022-08-19T00:19:23;98840.44;;;22.89;75.49
52745;BME280;38637;49.984;20.426;2022-08-19T00:21:49;98837.22;;;22.87;75.17
52745;BME280;38637;49.984;20.426;2022-08-19T00:24:14;98837.22;;;22.87;75.19
52745;BME280;38637;49.984;20.426;2022-08-19T00:26:40;98840.34;;;22.86;75.51
52745;BME280;38637;49.984;20.426;2022-08-19T00:29:06;98843.06;;;22.82;75.42
52745;BME280;38637;49.984;20.426;2022-08-19T00:31:32;98843.31;;;22.77;75.33
52745;BME280;38637;49.984;20.426;2022-08-19T00:33:57;98847.06;;;22.69;75.46
52745;BME280;38637;49.984;20.426;2022-08-19T00:36:23;98847.69;;;22.62;75.94
52745;BME280;38637;49.984;20.426;2022-08-19T00:38:48;98850.00;;;22.60;75.94
52745;BME280;38637;49.984;20.426;2022-08-19T00:41:15;98845.50;;;22.56;76.16
52745;BME280;38637;49.984;20.426;2022-08-19T00:43:42;98841.47;;;22.53;76.09
52745;BME280;38637;49.984;20.426;2022-08-19T00:46:07;98849.69;;;22.49;76.48
52745;BME280;38637;49.984;20.426;2022-08-19T00:48:33;98841.63;;;22.44;76.37
52745;BME280;38637;49.984;20.426;2022-08-19T00:50:58;98850.19;;;22.39;76.66
52745;BME280;38637;49.984;20.426;2022-08-19T00:53:26;98848.50;;;22.35;76.68
52745;BME280;38637;49.984;20.426;2022-08-19T00:55:52;98841.56;;;22.29;76.99
52745;BME280;38637;49.984;20.426;2022-08-19T00:58:19;98835.44;;;22.23;76.81
52745;BME280;38637;49.984;20.426;2022-08-19T01:00:45;98844.81;;;22.18;77.27
52745;BME280;38637;49.984;20.426;2022-08-19T01:03:12;98841.09;;;22.14;77.42
52745;BME280;38637;49.984;20.426;2022-08-19T01:05:38;98840.19;;;22.10;77.34
52745;BME280;38637;49.984;20.426;2022-08-19T01:08:04;98843.31;;;22.09;77.39
52745;BME280;38637;49.984;20.426;2022-08-19T01:10:31;98851.66;;;22.09;77.60
52745;BME280;38637;49.984;20.426;2022-08-19T01:12:58;98845.19;;;22.05;77.68
52745;BME280;38637;49.984;20.426;2022-08-19T01:15:26;98838.34;;;22.02;77.94
52745;BME280;38637;49.984;20.426;2022-08-19T01:17:54;98847.38;;;21.99;77.79
52745;BME280;38637;49.984;20.426;2022-08-19T01:20:20;98838.94;;;21.95;77.80
52745;BME280;38637;49.984;20.426;2022-08-19T01:22:50;98841.25;;;21.93;77.67
52745;BME280;38637;49.984;20.426;2022-08-19T01:25:17;98841.94;;;21.90;77.93
52745;BME280;38637;49.984;20.426;2022-08-19T01:27:43;98830.03;;;21.90;78.20
52745;BME280;38637;49.984;20.426;2022-08-19T01:30:20;98823.66;;;21.89;78.22
52745;BME280;38637;49.984;20.426;2022-08-19T01:32:47;98817.63;;;21.87;78.18
52745;BME280;38637;49.984;20.426;2022-08-19T01:35:13;98816.72;;;21.83;78.15
52745;BME280;38637;49.984;20.426;2022-08-19T01:37:56;98821.00;;;21.80;78.34
52745;BME280;38637;49.984;20.426;2022-08-19T01:40:22;98820.44;;;21.75;78.30
52745;BME280;38637;49.984;20.426;2022-08-19T01:42:49;98826.34;;;21.73;78.23
52745;BME280;38637;49.984;20.426;2022-08-19T01:45:15;98817.19;;;21.73;78.27
52745;BME280;38637;49.984;20.426;2022-08-19T01:47:40;98819.97;;;21.73;78.70
52745;BME280;38637;49.984;20.426;2022-08-19T01:50:06;98817.56;;;21.71;78.85
52745;BME280;38637;49.984;20.426;2022-08-19T01:52:34;98816.28;;;21.69;78.80
52745;BME280;38637;49.984;20.426;2022-08-19T01:54:59;98819.84;;;21.69;79.19
52745;BME280;38637;49.984;20.426;2022-08-19T01:57:24;98826.22;;;21.70;79.40
52745;BME280;38637;49.984;20.426;2022-08-19T01:59:50;98820.66;;;21.70;78.82
52745;BME280;38637;49.984;20.426;2022-08-19T02:02:16;98829.69;;;21.67;78.86
52745;BME280;38637;49.984;20.426;2022-08-19T02:04:41;98828.09;;;21.66;78.44
52745;BME280;38637;49.984;20.426;2022-08-19T02:07:07;98821.16;;;21.60;77.74
52745;BME280;38637;49.984;20.426;2022-08-19T02:09:33;98810.72;;;21.56;78.59
52745;BME280;38637;49.984;20.426;2022-08-19T02:11:58;98816.97;;;21.53;78.84
52745;BME280;38637;49.984;20.426;2022-08-19T02:14:23;98810.94;;;21.51;79.21
52745;BME280;38637;49.984;20.426;2022-08-19T02:16:49;98816.50;;;21.51;78.97
52745;BME280;38637;49.984;20.426;2022-08-19T02:19:14;98810.84;;;21.48;79.02
52745;BME280;38637;49.984;20.426;2022-08-19T02:21:39;98804.38;;;21.44;79.33
52745;BME280;38637;49.984;20.426;2022-08-19T02:24:04;98807.84;;;21.41;79.68
52745;BME280;38637;49.984;20.426;2022-08-19T02:26:31;98797.91;;;21.40;79.75
52745;BME280;38637;49.984;20.426;2022-08-19T02:28:56;98806.56;;;21.38;79.83
52745;BME280;38637;49.984;20.426;2022-08-19T02:31:22;98806.94;;;21.37;79.63
52745;BME280;38637;49.984;20.426;2022-08-19T02:33:48;98803.66;;;21.34;78.97
52745;BME280;38637;49.984;20.426;2022-08-19T02:36:14;98800.41;;;21.32;79.50
52745;BME280;38637;49.984;20.426;2022-08-19T02:38:40;98813.38;;;21.28;79.64
52745;BME280;38637;49.984;20.426;2022-08-19T02:41:47;98809.78;;;21.28;79.13
52745;BME280;38637;49.984;20.426;2022-08-19T02:43:57;98816.84;;;21.25;79.11
52745;BME280;38637;49.984;20.426;2022-08-19T02:46:25;98808.03;;;21.23;78.92
52745;BME280;38637;49.984;20.426;2022-08-19T02:48:53;98806.75;;;21.21;79.07
52745;BME280;38637;49.984;20.426;2022-08-19T02:51:20;98804.81;;;21.21;80.19
52745;BME280;38637;49.984;20.426;2022-08-19T02:53:45;98800.06;;;21.22;80.46
52745;BME280;38637;49.984;20.426;2022-08-19T02:56:11;98796.13;;;21.23;80.38
52745;BME280;38637;49.984;20.426;2022-08-19T02:58:36;98792.88;;;21.21;80.83
52745;BME280;38637;49.984;20.426;2022-08-19T03:01:01;98797.28;;;21.22;81.00
52745;BME280;38637;49.984;20.426;2022-08-19T03:03:27;98803.19;;;21.20;81.08
52745;BME280;38637;49.984;20.426;2022-08-19T03:06:02;98799.25;;;21.21;80.85
52745;BME280;38637;49.984;20.426;2022-08-19T03:08:27;98795.19;;;21.19;80.38
52745;BME280;38637;49.984;20.426;2022-08-19T03:10:53;98808.63;;;21.17;80.21
52745;BME280;38637;49.984;20.426;2022-08-19T03:13:18;98802.25;;;21.16;80.53
52745;BME280;38637;49.984;20.426;2022-08-19T03:15:45;98808.97;;;21.15;81.07
52745;BME280;38637;49.984;20.426;2022-08-19T03:18:10;98814.16;;;21.17;80.88
52745;BME280;38637;49.984;20.426;2022-08-19T03:20:47;98816.94;;;21.17;80.48
52745;BME280;38637;49.984;20.426;2022-08-19T03:23:13;98818.13;;;21.16;80.44
52745;BME280;38637;49.984;20.426;2022-08-19T03:25:39;98824.34;;;21.13;80.54
52745;BME280;38637;49.984;20.426;2022-08-19T03:28:06;98819.50;;;21.09;80.57
52745;BME280;38637;49.984;20.426;2022-08-19T03:30:32;98830.47;;;21.06;80.54
52745;BME280;38637;49.984;20.426;2022-08-19T03:32:57;98835.88;;;21.02;80.78
52745;BME280;38637;49.984;20.426;2022-08-19T03:35:22;98828.72;;;21.01;80.86
52745;BME280;38637;49.984;20.426;2022-08-19T03:37:48;98839.34;;;20.99;80.64
52745;BME280;38637;49.984;20.426;2022-08-19T03:40:13;98839.72;;;20.98;80.36
52745;BME280;38637;49.984;20.426;2022-08-19T03:42:38;98848.03;;;20.98;80.42
52745;BME280;38637;49.984;20.426;2022-08-19T03:45:07;98851.81;;;20.93;81.04
52745;BME280;38637;49.984;20.426;2022-08-19T03:47:33;98848.59;;;20.91;81.07
52745;BME280;38637;49.984;20.426;2022-08-19T03:49:58;98855.28;;;20.90;81.17
52745;BME280;38637;49.984;20.426;2022-08-19T03:52:23;98850.91;;;20.89;81.17
52745;BME280;38637;49.984;20.426;2022-08-19T03:54:48;98852.41;;;20.86;81.26
52745;BME280;38637;49.984;20.426;2022-08-19T03:57:14;98855.97;;;20.87;81.89
52745;BME280;38637;49.984;20.426;2022-08-19T03:59:39;98846.28;;;20.93;81.68
52745;BME280;38637;49.984;20.426;2022-08-19T04:02:11;98847.91;;;20.94;81.49
52745;BME280;38637;49.984;20.426;2022-08-19T04:04:37;98850.00;;;20.97;81.69
52745;BME280;38637;49.984;20.426;2022-08-19T04:07:02;98848.97;;;21.02;81.66
52745;BME280;38637;49.984;20.426;2022-08-19T04:09:28;98836.03;;;21.06;81.64
52745;BME280;38637;49.984;20.426;2022-08-19T04:11:54;98846.91;;;21.11;81.73
52745;BME280;38637;49.984;20.426;2022-08-19T04:14:20;98840.66;;;21.14;81.54
52745;BME280;38637;49.984;20.426;2022-08-19T04:16:47;98851.19;;;21.21;81.00
52745;BME280;38637;49.984;20.426;2022-08-19T04:19:13;98851.66;;;21.23;80.73
52745;BME280;38637;49.984;20.426;2022-08-19T04:21:38;98849.34;;;21.25;80.51
52745;BME280;38637;49.984;20.426;2022-08-19T04:24:04;98853.41;;;21.27;80.35
52745;BME280;38637;49.984;20.426;2022-08-19T04:26:30;98849.13;;;21.30;80.50
52745;BME280;38637;49.984;20.426;2022-08-19T04:28:59;98847.75;;;21.36;80.77
52745;BME280;38637;49.984;20.426;2022-08-19T04:31:27;98849.16;;;21.42;80.67
52745;BME280;38637;49.984;20.426;2022-08-19T04:33:53;98857.38;;;21.51;80.33
52745;BME280;38637;49.984;20.426;2022-08-19T04:36:23;98864.78;;;21.59;80.24
52745;BME280;38637;49.984;20.426;2022-08-19T04:38:49;98861.09;;;21.67;80.42
52745;BME280;38637;49.984;20.426;2022-08-19T04:41:14;98854.16;;;21.73;80.27
52745;BME280;38637;49.984;20.426;2022-08-19T04:43:58;98842.34;;;21.76;80.07
52745;BME280;38637;49.984;20.426;2022-08-19T04:46:24;98837.31;;;21.82;79.70
52745;BME280;38637;49.984;20.426;2022-08-19T04:48:49;98828.28;;;21.85;79.66
52745;BME280;38637;49.984;20.426;2022-08-19T04:51:15;98827.94;;;21.87;79.24
52745;BME280;38637;49.984;20.426;2022-08-19T04:53:41;98840.25;;;21.86;79.23
52745;BME280;38637;49.984;20.426;2022-08-19T04:56:13;98836.41;;;21.90;79.02
52745;BME280;38637;49.984;20.426;2022-08-19T04:58:39;98836.88;;;21.92;79.15
52745;BME280;38637;49.984;20.426;2022-08-19T05:01:06;98837.31;;;21.94;78.84
52745;BME280;38637;49.984;20.426;2022-08-19T05:03:32;98840.31;;;22.01;78.86
52745;BME280;38637;49.984;20.426;2022-08-19T05:05:58;98838.22;;;22.11;78.57
52745;BME280;38637;49.984;20.426;2022-08-19T05:08:23;98841.22;;;22.18;78.29
52745;BME280;38637;49.984;20.426;2022-08-19T05:10:49;98848.97;;;22.24;77.91
52745;BME280;38637;49.984;20.426;2022-08-19T05:13:15;98847.94;;;22.29;77.69
52745;BME280;38637;49.984;20.426;2022-08-19T05:15:41;98846.16;;;22.37;77.82
52745;BME280;38637;49.984;20.426;2022-08-19T05:18:06;98843.94;;;22.42;77.36
52745;BME280;38637;49.984;20.426;2022-08-19T05:20:50;98845.75;;;22.51;76.85
52745;BME280;38637;49.984;20.426;2022-08-19T05:23:34;98853.41;;;22.54;76.13
52745;BME280;38637;49.984;20.426;2022-08-19T05:25:59;98863.91;;;22.60;76.34
52745;BME280;38637;49.984;20.426;2022-08-19T05:28:24;98868.88;;;22.67;76.51
52745;BME280;38637;49.984;20.426;2022-08-19T05:30:50;98869.91;;;22.75;76.17
52745;BME280;38637;49.984;20.426;2022-08-19T05:33:15;98868.81;;;22.79;76.83
52745;BME280;38637;49.984;20.426;2022-08-19T05:35:41;98869.47;;;22.88;77.17
52745;BME280;38637;49.984;20.426;2022-08-19T05:38:07;98867.38;;;22.98;77.38
52745;BME280;38637;49.984;20.426;2022-08-19T05:40:36;98881.47;;;23.05;76.77
52745;BME280;38637;49.984;20.426;2022-08-19T05:43:06;98882.81;;;23.11;76.61
52745;BME280;38637;49.984;20.426;2022-08-19T05:45:31;98886.25;;;23.20;76.76
52745;BME280;38637;49.984;20.426;2022-08-19T05:47:57;98884.81;;;23.26;76.90
52745;BME280;38637;49.984;20.426;2022-08-19T05:50:23;98887.81;;;23.33;76.66
52745;BME280;38637;49.984;20.426;2022-08-19T05:52:49;98896.34;;;23.40;76.00
52745;BME280;38637;49.984;20.426;2022-08-19T05:55:14;98896.50;;;23.48;75.80
52745;BME280;38637;49.984;20.426;2022-08-19T05:57:39;98892.28;;;23.54;76.13
52745;BME280;38637;49.984;20.426;2022-08-19T06:00:05;98899.66;;;23.62;75.44
52745;BME280;38637;49.984;20.426;2022-08-19T06:02:34;98899.03;;;23.69;74.47
52745;BME280;38637;49.984;20.426;2022-08-19T06:05:00;98904.47;;;23.77;74.46
52745;BME280;38637;49.984;20.426;2022-08-19T06:07:26;98907.44;;;23.84;74.06
52745;BME280;38637;49.984;20.426;2022-08-19T06:09:52;98894.84;;;23.91;74.15
52745;BME280;38637;49.984;20.426;2022-08-19T06:12:17;98898.22;;;24.00;73.85
52745;BME280;38637;49.984;20.426;2022-08-19T06:14:42;98901.19;;;24.07;73.58
52745;BME280;38637;49.984;20.426;2022-08-19T06:17:08;98896.94;;;24.13;73.39
52745;BME280;38637;49.984;20.426;2022-08-19T06:19:33;98897.53;;;24.22;73.99
52745;BME280;38637;49.984;20.426;2022-08-19T06:21:59;98888.50;;;24.29;73.10
52745;BME280;38637;49.984;20.426;2022-08-19T06:24:25;98887.84;;;24.36;72.89
52745;BME280;38637;49.984;20.426;2022-08-19T06:26:52;98880.50;;;24.43;71.32
52745;BME280;38637;49.984;20.426;2022-08-19T06:29:19;98886.28;;;24.54;70.71
52745;BME280;38637;49.984;20.426;2022-08-19T06:31:46;98882.03;;;24.60;71.21
52745;BME280;38637;49.984;20.426;2022-08-19T06:34:14;98882.94;;;24.64;71.00
52745;BME280;38637;49.984;20.426;2022-08-19T06:36:41;98879.47;;;24.71;71.19
52745;BME280;38637;49.984;20.426;2022-08-19T06:39:10;98884.91;;;24.83;71.53
52745;BME280;38637;49.984;20.426;2022-08-19T06:41:37;98880.63;;;24.89;71.29
52745;BME280;38637;49.984;20.426;2022-08-19T06:44:03;98880.41;;;24.98;71.94
52745;BME280;38637;49.984;20.426;2022-08-19T06:46:28;98888.50;;;25.07;71.73
52745;BME280;38637;49.984;20.426;2022-08-19T06:48:54;98896.69;;;25.15;70.65
52745;BME280;38637;49.984;20.426;2022-08-19T06:51:20;98894.47;;;25.25;70.60
52745;BME280;38637;49.984;20.426;2022-08-19T06:53:48;98898.22;;;25.32;70.46
52745;BME280;38637;49.984;20.426;2022-08-19T06:56:14;98895.53;;;25.39;69.52
52745;BME280;38637;49.984;20.426;2022-08-19T06:58:40;98888.84;;;25.44;69.16
52745;BME280;38637;49.984;20.426;2022-08-19T07:01:05;98895.28;;;25.48;68.98
52745;BME280;38637;49.984;20.426;2022-08-19T07:03:34;98900.59;;;25.53;68.99
52745;BME280;38637;49.984;20.426;2022-08-19T07:06:07;98896.66;;;25.58;68.30
52745;BME280;38637;49.984;20.426;2022-08-19T07:08:33;98893.56;;;25.63;68.40
52745;BME280;38637;49.984;20.426;2022-08-19T07:10:59;98896.84;;;25.68;68.78
52745;BME280;38637;49.984;20.426;2022-08-19T07:13:25;98895.34;;;25.75;68.94
52745;BME280;38637;49.984;20.426;2022-08-19T07:15:50;98901.00;;;25.78;68.29
52745;BME280;38637;49.984;20.426;2022-08-19T07:18:17;98903.13;;;25.85;68.69
52745;BME280;38637;49.984;20.426;2022-08-19T07:20:42;98898.81;;;25.91;68.30
52745;BME280;38637;49.984;20.426;2022-08-19T07:23:08;98903.34;;;25.99;69.29
52745;BME280;38637;49.984;20.426;2022-08-19T07:25:35;98900.66;;;26.06;68.30
52745;BME280;38637;49.984;20.426;2022-08-19T07:28:00;98903.53;;;26.13;67.95
52745;BME280;38637;49.984;20.426;2022-08-19T07:30:26;98901.22;;;26.19;68.02
52745;BME280;38637;49.984;20.426;2022-08-19T07:32:51;98904.16;;;26.26;68.10
52745;BME280;38637;49.984;20.426;2022-08-19T07:35:17;98911.03;;;26.32;66.95
52745;BME280;38637;49.984;20.426;2022-08-19T07:37:44;98908.28;;;26.36;66.78
52745;BME280;38637;49.984;20.426;2022-08-19T07:40:10;98917.56;;;26.44;67.18
52745;BME280;38637;49.984;20.426;2022-08-19T07:42:35;98924.13;;;26.51;64.83
52745;BME280;38637;49.984;20.426;2022-08-19T07:45:00;98932.56;;;26.55;62.34
52745;BME280;38637;49.984;20.426;2022-08-19T07:47:26;98924.66;;;26.61;63.73
52745;BME280;38637;49.984;20.426;2022-08-19T07:49:53;98927.53;;;26.68;64.42
52745;BME280;38637;49.984;20.426;2022-08-19T07:52:18;98924.41;;;26.73;64.55
52745;BME280;38637;49.984;20.426;2022-08-19T07:54:43;98927.72;;;26.82;65.12
52745;BME280;38637;49.984;20.426;2022-08-19T07:57:09;98925.78;;;26.90;64.05
52745;BME280;38637;49.984;20.426;2022-08-19T07:59:34;98921.84;;;26.94;64.61
52745;BME280;38637;49.984;20.426;2022-08-19T08:01:59;98919.13;;;27.01;64.60
52745;BME280;38637;49.984;20.426;2022-08-19T08:04:25;98926.00;;;27.08;64.34
52745;BME280;38637;49.984;20.426;2022-08-19T08:07:09;98925.22;;;27.11;64.30
52745;BME280;38637;49.984;20.426;2022-08-19T08:09:53;98926.09;;;27.15;65.00
52745;BME280;38637;49.984;20.426;2022-08-19T08:12:20;98927.78;;;27.19;65.55
52745;BME280;38637;49.984;20.426;2022-08-19T08:14:51;98935.44;;;27.26;65.14
52745;BME280;38637;49.984;20.426;2022-08-19T08:17:18;98929.88;;;27.30;63.30
52745;BME280;38637;49.984;20.426;2022-08-19T08:19:44;98934.34;;;27.34;63.98
52745;BME280;38637;49.984;20.426;2022-08-19T08:22:10;98932.41;;;27.42;63.91
52745;BME280;38637;49.984;20.426;2022-08-19T08:24:55;98942.88;;;27.48;62.78
52745;BME280;38637;49.984;20.426;2022-08-19T08:27:23;98947.78;;;27.55;63.46
52745;BME280;38637;49.984;20.426;2022-08-19T08:29:48;98951.00;;;27.61;63.80
52745;BME280;38637;49.984;20.426;2022-08-19T08:32:14;98943.78;;;27.60;62.80
52745;BME280;38637;49.984;20.426;2022-08-19T08:34:39;98946.59;;;27.60;63.22
52745;BME280;38637;49.984;20.426;2022-08-19T08:37:05;98941.44;;;27.65;63.18
52745;BME280;38637;49.984;20.426;2022-08-19T08:39:30;98939.47;;;27.69;62.18
52745;BME280;38637;49.984;20.426;2022-08-19T08:42:05;98946.34;;;27.76;62.15
52745;BME280;38637;49.984;20.426;2022-08-19T08:44:38;98953.22;;;27.82;60.05
52745;BME280;38637;49.984;20.426;2022-08-19T08:47:12;98945.25;;;27.87;61.02
52745;BME280;38637;49.984;20.426;2022-08-19T08:52:13;98939.78;;;28.05;60.51
52745;BME280;38637;49.984;20.426;2022-08-19T08:54:41;98939.44;;;28.10;60.11
52745;BME280;38637;49.984;20.426;2022-08-19T08:57:10;98939.84;;;28.16;59.72
52745;BME280;38637;49.984;20.426;2022-08-19T08:59:38;98934.66;;;28.18;60.65
52745;BME280;38637;49.984;20.426;2022-08-19T09:02:06;98942.72;;;28.20;59.76
52745;BME280;38637;49.984;20.426;2022-08-19T09:04:33;98943.91;;;28.22;61.22
52745;BME280;38637;49.984;20.426;2022-08-19T09:09:43;98946.81;;;28.36;59.78
52745;BME280;38637;49.984;20.426;2022-08-19T09:12:12;98937.63;;;28.39;59.41
52745;BME280;38637;49.984;20.426;2022-08-19T09:14:50;98947.72;;;28.44;59.66
52745;BME280;38637;49.984;20.426;2022-08-19T09:17:17;98942.91;;;28.45;59.32
52745;BME280;38637;49.984;20.426;2022-08-19T09:19:49;98933.28;;;28.53;60.47
52745;BME280;38637;49.984;20.426;2022-08-19T09:22:15;98935.75;;;28.58;59.74
52745;BME280;38637;49.984;20.426;2022-08-19T09:24:40;98933.38;;;28.63;59.16
52745;BME280;38637;49.984;20.426;2022-08-19T09:27:06;98930.56;;;28.71;58.96
52745;BME280;38637;49.984;20.426;2022-08-19T09:29:31;98929.41;;;28.72;59.28
52745;BME280;38637;49.984;20.426;2022-08-19T09:31:56;98935.41;;;28.77;60.15
52745;BME280;38637;49.984;20.426;2022-08-19T09:34:21;98929.44;;;28.82;59.13
52745;BME280;38637;49.984;20.426;2022-08-19T09:36:47;98931.06;;;28.83;58.33
52745;BME280;38637;49.984;20.426;2022-08-19T09:39:17;98935.03;;;28.82;57.31
52745;BME280;38637;49.984;20.426;2022-08-19T09:41:42;98925.03;;;28.81;57.63
52745;BME280;38637;49.984;20.426;2022-08-19T09:44:07;98927.03;;;28.84;58.47
52745;BME280;38637;49.984;20.426;2022-08-19T09:46:33;98923.81;;;28.86;58.36
52745;BME280;38637;49.984;20.426;2022-08-19T09:48:58;98913.41;;;28.90;57.02
52745;BME280;38637;49.984;20.426;2022-08-19T09:51:24;98913.78;;;28.92;56.85
52745;BME280;38637;49.984;20.426;2022-08-19T09:53:51;98921.44;;;28.92;58.29
52745;BME280;38637;49.984;20.426;2022-08-19T09:56:18;98925.09;;;28.96;57.54
52745;BME280;38637;49.984;20.426;2022-08-19T09:58:44;98928.69;;;29.00;58.09
52745;BME280;38637;49.984;20.426;2022-08-19T10:01:14;98922.69;;;29.01;58.39
52745;BME280;38637;49.984;20.426;2022-08-19T10:03:40;98917.91;;;29.09;58.00
52745;BME280;38637;49.984;20.426;2022-08-19T10:06:05;98922.75;;;29.12;57.05
52745;BME280;38637;49.984;20.426;2022-08-19T10:08:32;98918.34;;;29.15;56.86
52745;BME280;38637;49.984;20.426;2022-08-19T10:10:59;98915.13;;;29.20;58.01
52745;BME280;38637;49.984;20.426;2022-08-19T10:13:26;98907.91;;;29.26;58.02
52745;BME280;38637;49.984;20.426;2022-08-19T10:15:53;98910.31;;;29.31;57.88
52745;BME280;38637;49.984;20.426;2022-08-19T10:18:20;98901.09;;;29.38;57.37
52745;BME280;38637;49.984;20.426;2022-08-19T10:20:46;98905.13;;;29.44;57.17
52745;BME280;38637;49.984;20.426;2022-08-19T10:23:12;98898.31;;;29.52;56.60
52745;BME280;38637;49.984;20.426;2022-08-19T10:25:37;98898.28;;;29.55;56.06
52745;BME280;38637;49.984;20.426;2022-08-19T10:28:03;98901.56;;;29.61;56.51
52745;BME280;38637;49.984;20.426;2022-08-19T10:30:28;98900.75;;;29.64;55.97
52745;BME280;38637;49.984;20.426;2022-08-19T10:32:53;98907.59;;;29.67;55.97
52745;BME280;38637;49.984;20.426;2022-08-19T10:35:19;98903.16;;;29.73;55.58
52745;BME280;38637;49.984;20.426;2022-08-19T10:37:44;98907.97;;;29.80;55.67
52745;BME280;38637;49.984;20.426;2022-08-19T10:40:09;98893.91;;;29.87;56.09
52745;BME280;38637;49.984;20.426;2022-08-19T10:42:36;98900.34;;;29.91;53.50
52745;BME280;38637;49.984;20.426;2022-08-19T10:45:02;98892.28;;;29.96;54.03
52745;BME280;38637;49.984;20.426;2022-08-19T10:47:28;98891.88;;;30.02;54.12
52745;BME280;38637;49.984;20.426;2022-08-19T10:49:53;98887.84;;;30.06;53.40
52745;BME280;38637;49.984;20.426;2022-08-19T10:52:41;98887.03;;;30.13;54.25
52745;BME280;38637;49.984;20.426;2022-08-19T10:55:07;98884.63;;;30.18;52.84
52745;BME280;38637;49.984;20.426;2022-08-19T10:57:51;98886.66;;;30.21;52.94
52745;BME280;38637;49.984;20.426;2022-08-19T11:00:18;98879.38;;;30.28;52.49
52745;BME280;38637;49.984;20.426;2022-08-19T11:02:43;98880.19;;;30.32;53.08
52745;BME280;38637;49.984;20.426;2022-08-19T11:05:08;98873.72;;;30.35;53.00
52745;BME280;38637;49.984;20.426;2022-08-19T11:07:36;98869.66;;;30.39;53.56
52745;BME280;38637;49.984;20.426;2022-08-19T11:10:02;98878.50;;;30.45;53.91
52745;BME280;38637;49.984;20.426;2022-08-19T11:12:28;98877.31;;;30.50;53.49
52745;BME280;38637;49.984;20.426;2022-08-19T11:14:53;98874.47;;;30.53;54.18
52745;BME280;38637;49.984;20.426;2022-08-19T11:17:19;98882.88;;;30.60;52.88
52745;BME280;38637;49.984;20.426;2022-08-19T11:19:45;98876.84;;;30.65;52.55
52745;BME280;38637;49.984;20.426;2022-08-19T11:22:13;98874.00;;;30.69;51.20
52745;BME280;38637;49.984;20.426;2022-08-19T11:24:38;98864.31;;;30.70;51.50
52745;BME280;38637;49.984;20.426;2022-08-19T11:27:05;98880.81;;;30.79;52.75
52745;BME280;38637;49.984;20.426;2022-08-19T11:29:31;98867.50;;;30.86;52.29
52745;BME280;38637;49.984;20.426;2022-08-19T11:31:57;98863.84;;;30.93;52.09
52745;BME280;38637;49.984;20.426;2022-08-19T11:34:23;98866.25;;;30.98;51.30
52745;BME280;38637;49.984;20.426;2022-08-19T11:36:50;98883.13;;;31.02;50.40
52745;BME280;38637;49.984;20.426;2022-08-19T11:39:16;98863.38;;;31.05;49.85
52745;BME280;38637;49.984;20.426;2022-08-19T11:41:42;98862.13;;;31.10;49.08
52745;BME280;38637;49.984;20.426;2022-08-19T11:44:07;98852.00;;;31.16;50.78
52745;BME280;38637;49.984;20.426;2022-08-19T11:46:33;98850.78;;;31.21;50.33
52745;BME280;38637;49.984;20.426;2022-08-19T11:48:59;98850.72;;;31.28;49.92
52745;BME280;38637;49.984;20.426;2022-08-19T11:51:25;98848.69;;;31.32;47.93
52745;BME280;38637;49.984;20.426;2022-08-19T11:53:51;98849.47;;;31.32;46.42
52745;BME280;38637;49.984;20.426;2022-08-19T11:56:17;98838.19;;;31.32;46.56
52745;BME280;38637;49.984;20.426;2022-08-19T11:58:43;98845.06;;;31.35;47.91
52745;BME280;38637;49.984;20.426;2022-08-19T12:01:09;98847.44;;;31.40;48.00
52745;BME280;38637;49.984;20.426;2022-08-19T12:03:36;98846.59;;;31.43;47.05
52745;BME280;38637;49.984;20.426;2022-08-19T12:06:08;98847.38;;;31.47;46.38
52745;BME280;38637;49.984;20.426;2022-08-19T12:08:34;98842.09;;;31.49;46.34
52745;BME280;38637;49.984;20.426;2022-08-19T12:10:59;98834.03;;;31.51;46.00
52745;BME280;38637;49.984;20.426;2022-08-19T12:13:28;98828.78;;;31.53;46.30
52745;BME280;38637;49.984;20.426;2022-08-19T12:15:54;98823.16;;;31.53;45.85
52745;BME280;38637;49.984;20.426;2022-08-19T12:18:20;98837.63;;;31.59;46.91
52745;BME280;38637;49.984;20.426;2022-08-19T12:20:45;98834.75;;;31.63;45.42
52745;BME280;38637;49.984;20.426;2022-08-19T12:23:11;98845.22;;;31.66;46.02
52745;BME280;38637;49.984;20.426;2022-08-19T12:25:37;98845.56;;;31.68;45.76
52745;BME280;38637;49.984;20.426;2022-08-19T12:28:08;98849.63;;;31.67;44.62
52745;BME280;38637;49.984;20.426;2022-08-19T12:30:33;98846.78;;;31.70;44.61
52745;BME280;38637;49.984;20.426;2022-08-19T12:32:58;98843.94;;;31.70;44.43
52745;BME280;38637;49.984;20.426;2022-08-19T12:35:24;98840.31;;;31.70;44.57
52745;BME280;38637;49.984;20.426;2022-08-19T12:37:49;98839.53;;;31.69;46.41
52745;BME280;38637;49.984;20.426;2022-08-19T12:40:15;98839.94;;;31.71;45.31
52745;BME280;38637;49.984;20.426;2022-08-19T12:42:40;98839.88;;;31.75;46.24
52745;BME280;38637;49.984;20.426;2022-08-19T12:45:09;98830.59;;;31.78;46.29
52745;BME280;38637;49.984;20.426;2022-08-19T12:47:35;98831.34;;;31.82;44.79
52745;BME280;38637;49.984;20.426;2022-08-19T12:50:00;98841.00;;;31.85;45.79
52745;BME280;38637;49.984;20.426;2022-08-19T12:52:26;98843.38;;;31.86;46.20
52745;BME280;38637;49.984;20.426;2022-08-19T12:54:52;98838.13;;;31.88;45.10